Time;durP1;ratioP1;P1;durP2;ratioP2;P2;SDS_P1;SDS_P2;PMS_P1;PMS_P2;Temp;Humidity;BMP_temperature;BMP_pressure;BME280_temperature;BME280_humidity;BME280_pressure;Samples;Min_cycle;Max_cycle;Signal;HPM_P1;HPM_P2
2021/12/28 00:00:08;;;;;;;12.50;8.43;;;7.90;96.90;;;;;;2098909;28;20048;-89
2021/12/28 00:01:13;;;;;;;9.43;7.47;;;7.90;96.90;;;;;;2098414;28;20055;-88
2021/12/28 00:02:13;;;;;;;10.98;8.18;;;7.90;97.00;;;;;;2097328;28;20041;-89
2021/12/28 00:03:14;;;;;;;12.30;9.13;;;8.00;97.00;;;;;;2094220;28;20045;-88
2021/12/28 00:04:15;;;;;;;11.65;8.48;;;7.90;97.20;;;;;;2089517;28;20453;-89
2021/12/28 00:05:16;;;;;;;14.93;8.60;;;8.00;97.00;;;;;;2084755;28;20033;-88
2021/12/28 00:06:18;;;;;;;11.10;8.68;;;7.90;97.20;;;;;;2088856;28;20395;-88
2021/12/28 00:07:18;;;;;;;12.07;8.07;;;8.00;97.00;;;;;;2098033;28;20033;-88
2021/12/28 00:08:19;;;;;;;10.57;8.10;;;8.00;97.00;;;;;;2080527;28;20124;-89
2021/12/28 00:09:20;;;;;;;12.73;8.63;;;8.00;96.90;;;;;;2080003;28;20125;-88
2021/12/28 00:10:21;;;;;;;10.50;8.40;;;8.00;96.90;;;;;;2087053;28;20112;-88
2021/12/28 00:11:21;;;;;;;10.93;8.77;;;8.00;96.90;;;;;;2081686;28;20029;-88
2021/12/28 00:12:23;;;;;;;10.93;8.23;;;8.00;97.10;;;;;;2097982;28;20518;-88
2021/12/28 00:13:24;;;;;;;12.55;8.10;;;8.00;96.90;;;;;;2089616;28;20025;-88
2021/12/28 00:14:34;;;;;;;10.85;8.38;;;8.00;96.90;;;;;;2079022;28;20077;-88
2021/12/28 00:15:48;;;;;;;9.65;8.10;;;8.00;96.90;;;;;;2081429;28;20104;-88
2021/12/28 00:18:07;;;;;;;11.15;8.02;;;8.00;97.20;;;;;;2080123;28;20522;-88
2021/12/28 00:19:08;;;;;;;10.68;8.35;;;8.00;96.90;;;;;;2074416;28;20129;-89
2021/12/28 00:20:09;;;;;;;10.35;7.90;;;8.00;96.90;;;;;;2085695;28;20037;-89
2021/12/28 00:21:10;;;;;;;10.50;8.00;;;8.00;96.90;;;;;;2087253;28;20194;-89
2021/12/28 00:22:10;;;;;;;10.63;7.47;;;8.00;96.90;;;;;;2088781;28;20103;-89
2021/12/28 00:23:19;;;;;;;11.52;8.52;;;8.00;96.90;;;;;;2087973;28;20391;-89
2021/12/28 00:24:20;;;;;;;12.18;7.80;;;8.00;96.90;;;;;;2081721;28;20522;-89
2021/12/28 00:25:21;;;;;;;10.00;8.10;;;8.00;96.90;;;;;;2088609;28;20033;-89
2021/12/28 00:26:23;;;;;;;9.55;7.60;;;8.00;96.90;;;;;;2090759;28;20041;-89
2021/12/28 00:27:23;;;;;;;10.43;8.25;;;8.00;96.90;;;;;;2098849;28;20037;-89
2021/12/28 00:28:24;;;;;;;13.18;7.90;;;8.00;96.90;;;;;;2089604;28;20037;-88
2021/12/28 00:29:25;;;;;;;11.18;7.93;;;8.00;97.00;;;;;;2088998;28;20021;-88
2021/12/28 00:30:26;;;;;;;10.45;7.75;;;8.00;97.00;;;;;;2070933;28;20034;-89
2021/12/28 00:31:26;;;;;;;10.43;7.50;;;8.00;97.00;;;;;;2081174;28;20056;-89
2021/12/28 00:32:28;;;;;;;9.93;7.63;;;8.00;97.10;;;;;;2091089;28;20051;-89
2021/12/28 00:33:29;;;;;;;11.60;8.00;;;7.90;97.00;;;;;;2099296;28;20033;-88
2021/12/28 00:34:31;;;;;;;9.80;7.68;;;7.90;97.00;;;;;;2095536;28;20489;-89
2021/12/28 00:35:35;;;;;;;10.38;7.70;;;7.90;97.00;;;;;;2073103;28;20034;-89
2021/12/28 00:36:36;;;;;;;11.18;7.95;;;8.00;97.10;;;;;;2070284;28;20042;-88
2021/12/28 00:37:37;;;;;;;10.07;7.50;;;7.90;97.00;;;;;;2085592;28;20038;-89
2021/12/28 00:38:38;;;;;;;9.23;7.30;;;8.00;97.10;;;;;;2080978;28;20037;-89
2021/12/28 00:39:38;;;;;;;11.02;7.90;;;7.90;97.00;;;;;;2080448;28;20148;-89
2021/12/28 00:40:39;;;;;;;11.52;8.15;;;7.90;97.00;;;;;;2080697;28;20041;-89
2021/12/28 00:41:40;;;;;;;10.75;7.20;;;7.90;97.00;;;;;;2072812;28;20076;-89
2021/12/28 00:42:41;;;;;;;10.65;7.43;;;7.90;97.00;;;;;;2080745;28;20040;-87
2021/12/28 00:43:42;;;;;;;11.23;7.32;;;7.90;97.00;;;;;;2077685;28;20069;-89
2021/12/28 00:44:43;;;;;;;12.00;8.43;;;7.90;97.00;;;;;;2081009;28;20036;-89
2021/12/28 00:45:44;;;;;;;11.45;7.57;;;7.90;97.10;;;;;;2071279;28;20332;-89
2021/12/28 00:46:45;;;;;;;9.65;7.25;;;7.80;97.10;;;;;;2080377;28;20030;-89
2021/12/28 00:47:46;;;;;;;10.25;7.45;;;7.80;97.10;;;;;;2088170;28;20127;-89
2021/12/28 00:48:47;;;;;;;10.60;7.30;;;7.80;97.10;;;;;;2073147;28;20105;-89
2021/12/28 00:49:47;;;;;;;12.55;8.02;;;7.80;97.10;;;;;;2076704;28;20443;-88
2021/12/28 00:50:49;;;;;;;10.15;7.45;;;7.80;97.10;;;;;;2082923;28;20065;-89
2021/12/28 00:51:50;;;;;;;10.32;6.72;;;7.80;97.20;;;;;;2093749;28;20035;-88
2021/12/28 00:52:51;;;;;;;11.18;7.22;;;7.80;97.20;;;;;;2073283;28;20092;-89
2021/12/28 00:53:51;;;;;;;11.05;7.32;;;7.80;97.20;;;;;;2077192;28;20487;-88
2021/12/28 00:54:52;;;;;;;9.90;7.10;;;7.80;97.20;;;;;;2081064;28;20048;-89
2021/12/28 00:55:52;;;;;;;9.77;6.93;;;7.80;97.20;;;;;;2071736;28;20129;-89
2021/12/28 00:56:53;;;;;;;9.85;7.13;;;7.80;97.20;;;;;;2080720;28;20447;-89
2021/12/28 00:57:54;;;;;;;10.85;6.53;;;7.80;97.20;;;;;;2081666;28;20069;-88
2021/12/28 00:58:55;;;;;;;9.23;6.53;;;7.80;97.20;;;;;;2081202;28;20392;-89
2021/12/28 00:59:55;;;;;;;10.13;6.35;;;7.70;97.20;;;;;;2080433;28;20187;-89
2021/12/28 01:00:56;;;;;;;8.85;6.13;;;7.80;97.20;;;;;;2072724;28;20030;-88
2021/12/28 01:01:57;;;;;;;10.07;6.63;;;7.80;97.20;;;;;;2079374;28;20131;-89
2021/12/28 01:02:59;;;;;;;9.38;6.15;;;7.80;97.50;;;;;;2072996;28;20038;-89
2021/12/28 01:04:00;;;;;;;9.70;6.20;;;7.70;97.20;;;;;;2077995;28;20037;-89
2021/12/28 01:05:01;;;;;;;10.73;6.10;;;7.70;97.20;;;;;;2066719;28;20034;-89
2021/12/28 01:06:02;;;;;;;9.68;6.25;;;7.70;97.20;;;;;;2088294;28;20143;-89
2021/12/28 01:07:03;;;;;;;9.60;5.88;;;7.70;97.20;;;;;;2072924;28;20033;-89
2021/12/28 01:08:05;;;;;;;9.05;6.10;;;7.70;97.20;;;;;;2076306;28;20122;-88
2021/12/28 01:09:06;;;;;;;10.73;6.00;;;7.70;97.20;;;;;;2082531;28;20492;-89
2021/12/28 01:10:11;;;;;;;12.27;6.45;;;7.70;97.30;;;;;;2094565;28;20032;-88
2021/12/28 01:11:12;;;;;;;9.32;5.90;;;7.70;97.30;;;;;;2085414;28;20025;-87
2021/12/28 01:12:13;;;;;;;8.80;5.95;;;7.70;97.30;;;;;;2087523;28;20528;-88
2021/12/28 01:13:14;;;;;;;12.35;6.10;;;7.60;97.30;;;;;;2089784;28;20422;-88
2021/12/28 01:14:14;;;;;;;9.85;6.28;;;7.60;97.30;;;;;;2084175;28;20053;-89
2021/12/28 01:15:16;;;;;;;10.48;6.55;;;7.60;97.30;;;;;;2089193;28;20033;-88
2021/12/28 01:16:18;;;;;;;10.60;6.82;;;7.60;97.30;;;;;;2071864;28;20034;-87
2021/12/28 01:17:19;;;;;;;8.82;6.03;;;7.60;97.30;;;;;;2079117;28;20041;-89
2021/12/28 01:18:21;;;;;;;9.20;6.00;;;7.60;97.30;;;;;;2090247;28;20092;-87
2021/12/28 01:19:22;;;;;;;11.15;6.07;;;7.60;97.30;;;;;;2097610;28;20518;-88
2021/12/28 01:20:24;;;;;;;10.02;6.28;;;7.60;97.30;;;;;;2097495;28;20043;-86
2021/12/28 01:21:24;;;;;;;9.32;6.15;;;7.60;97.60;;;;;;2099027;28;20037;-86
2021/12/28 01:22:25;;;;;;;9.45;6.10;;;7.60;97.30;;;;;;2095125;28;20422;-85
2021/12/28 01:23:26;;;;;;;11.02;6.70;;;7.60;97.30;;;;;;2100195;28;20032;-85
2021/12/28 01:24:28;;;;;;;10.63;6.28;;;7.60;97.30;;;;;;2091127;28;20025;-85
2021/12/28 01:25:29;;;;;;;13.30;6.53;;;7.60;97.50;;;;;;2090749;28;20037;-85
2021/12/28 01:26:30;;;;;;;11.88;6.32;;;7.60;97.40;;;;;;2092403;28;20041;-87
2021/12/28 01:27:30;;;;;;;10.57;6.40;;;7.60;97.40;;;;;;2089249;28;20040;-87
2021/12/28 01:28:31;;;;;;;10.60;6.20;;;7.60;97.40;;;;;;2085732;28;20037;-88
2021/12/28 01:29:33;;;;;;;11.68;6.20;;;7.50;97.40;;;;;;2073075;28;20038;-89
2021/12/28 01:30:34;;;;;;;11.45;6.38;;;7.50;97.40;;;;;;2081903;28;20129;-87
2021/12/28 01:31:37;;;;;;;10.75;5.90;;;7.50;97.40;;;;;;2093906;28;20712;-89
2021/12/28 01:32:39;;;;;;;8.60;6.18;;;7.50;97.40;;;;;;2093609;28;20037;-89
2021/12/28 01:33:40;;;;;;;8.77;5.88;;;7.50;97.40;;;;;;2096517;28;20037;-88
2021/12/28 01:34:41;;;;;;;9.05;5.88;;;7.50;97.40;;;;;;2097828;28;20124;-89
2021/12/28 01:35:42;;;;;;;10.25;6.40;;;7.50;97.40;;;;;;2099742;28;20495;-89
2021/12/28 01:36:42;;;;;;;9.50;6.05;;;7.50;97.40;;;;;;2100241;28;20079;-89
2021/12/28 01:37:44;;;;;;;8.27;5.38;;;7.50;97.40;;;;;;2090482;28;20052;-90
2021/12/28 01:38:45;;;;;;;8.57;5.82;;;7.50;97.40;;;;;;2091409;28;20080;-88
2021/12/28 01:39:46;;;;;;;9.93;5.82;;;7.50;97.50;;;;;;2101020;28;20049;-87
2021/12/28 01:40:46;;;;;;;7.22;5.07;;;7.50;97.50;;;;;;2101695;28;20037;-88
2021/12/28 01:41:47;;;;;;;8.88;5.38;;;7.50;97.50;;;;;;2113760;28;20055;-88
2021/12/28 01:43:12;;;;;;;10.07;5.78;;;7.50;97.50;;;;;;2088154;28;20547;-87
2021/12/28 01:44:13;;;;;;;10.13;5.90;;;7.50;97.50;;;;;;2092120;28;20036;-88
2021/12/28 01:45:13;;;;;;;8.45;5.35;;;7.50;97.50;;;;;;2084901;28;20152;-89
2021/12/28 01:46:14;;;;;;;9.48;5.45;;;7.50;97.50;;;;;;2088231;28;20044;-88
2021/12/28 01:47:16;;;;;;;10.05;5.60;;;7.50;97.40;;;;;;2096942;28;20119;-87
2021/12/28 01:48:23;;;;;;;8.63;4.93;;;7.50;97.40;;;;;;2099061;28;20086;-88
2021/12/28 01:49:24;;;;;;;7.80;4.72;;;7.50;97.40;;;;;;2092299;28;20029;-89
2021/12/28 01:50:24;;;;;;;9.50;5.55;;;7.50;97.40;;;;;;2090683;28;20087;-89
2021/12/28 01:51:27;;;;;;;9.98;5.00;;;7.60;97.40;;;;;;2091050;28;20036;-88
2021/12/28 01:52:27;;;;;;;9.57;5.10;;;7.60;97.40;;;;;;2094829;28;20028;-89
2021/12/28 01:53:29;;;;;;;11.35;5.35;;;7.60;97.60;;;;;;2098828;28;20060;-88
2021/12/28 01:54:29;;;;;;;9.48;5.22;;;7.60;97.40;;;;;;2099309;28;20123;-88
2021/12/28 01:55:31;;;;;;;9.00;5.40;;;7.60;97.40;;;;;;2097883;28;20036;-90
2021/12/28 01:56:45;;;;;;;9.10;5.40;;;7.60;97.40;;;;;;2098817;28;20083;-89
2021/12/28 01:57:45;;;;;;;8.65;5.35;;;7.60;97.40;;;;;;2085679;28;20052;-89
2021/12/28 01:58:48;;;;;;;8.68;4.82;;;7.60;97.30;;;;;;2082545;28;20045;-89
2021/12/28 01:59:51;;;;;;;8.45;5.22;;;7.60;97.30;;;;;;2097650;28;20090;-89
2021/12/28 02:00:54;;;;;;;10.52;4.95;;;7.60;97.30;;;;;;2099076;28;20033;-89
2021/12/28 02:01:56;;;;;;;9.18;5.30;;;7.70;97.30;;;;;;2099229;28;20107;-89
2021/12/28 02:02:57;;;;;;;8.95;4.70;;;7.60;97.30;;;;;;2091808;28;20040;-89
2021/12/28 02:03:58;;;;;;;7.85;4.88;;;7.60;97.30;;;;;;2082051;28;20041;-89
2021/12/28 02:04:59;;;;;;;8.07;4.63;;;7.60;97.30;;;;;;2089061;28;20032;-89
2021/12/28 02:06:00;;;;;;;7.95;4.63;;;7.60;97.30;;;;;;2081175;28;20036;-90
2021/12/28 02:07:02;;;;;;;8.85;4.70;;;7.60;97.50;;;;;;2081934;28;20073;-89
2021/12/28 02:08:04;;;;;;;7.20;4.70;;;7.60;97.30;;;;;;2090784;28;20039;-89
2021/12/28 02:09:04;;;;;;;8.48;4.63;;;7.60;97.30;;;;;;2090821;28;20033;-89
2021/12/28 02:10:05;;;;;;;7.88;4.60;;;7.60;97.30;;;;;;2093578;28;20133;-89
2021/12/28 02:11:08;;;;;;;8.88;4.25;;;7.70;97.30;;;;;;2102446;28;20068;-89
2021/12/28 02:12:09;;;;;;;7.78;3.83;;;7.60;97.30;;;;;;2112108;28;20028;-90
2021/12/28 02:13:09;;;;;;;8.43;4.57;;;7.70;97.30;;;;;;2102914;28;20037;-90
2021/12/28 02:14:11;;;;;;;7.80;4.40;;;7.60;97.30;;;;;;2099033;28;20120;-90
2021/12/28 02:15:14;;;;;;;8.48;4.55;;;7.60;97.30;;;;;;2102867;28;20063;-90
2021/12/28 02:16:15;;;;;;;8.90;4.60;;;7.70;97.30;;;;;;2099213;28;20485;-89
2021/12/28 02:17:16;;;;;;;8.43;4.45;;;7.70;97.30;;;;;;2097081;28;20059;-90
2021/12/28 02:18:20;;;;;;;10.25;4.57;;;7.70;97.30;;;;;;2099487;28;20059;-90
2021/12/28 02:19:20;;;;;;;9.60;4.13;;;7.70;97.30;;;;;;2097179;28;20048;-90
2021/12/28 02:20:21;;;;;;;6.97;4.55;;;7.70;97.30;;;;;;2091864;28;20580;-89
2021/12/28 02:21:22;;;;;;;7.28;4.10;;;7.70;97.30;;;;;;2090652;28;20513;-90
2021/12/28 02:22:23;;;;;;;7.25;4.13;;;7.70;97.30;;;;;;2073747;28;20056;-90
2021/12/28 02:23:24;;;;;;;7.80;4.30;;;7.70;97.30;;;;;;2081460;28;20699;-89
2021/12/28 02:24:25;;;;;;;6.88;3.90;;;7.70;97.30;;;;;;2089761;28;20038;-89
2021/12/28 02:25:25;;;;;;;7.70;3.95;;;7.70;97.30;;;;;;2098247;28;20060;-89
2021/12/28 02:26:26;;;;;;;7.68;4.13;;;7.70;97.30;;;;;;2093679;28;20609;-90
2021/12/28 02:27:28;;;;;;;7.13;3.63;;;7.70;97.30;;;;;;2081017;28;20383;-90
2021/12/28 02:28:29;;;;;;;7.75;3.60;;;7.60;97.30;;;;;;2090719;28;20406;-90
2021/12/28 02:29:29;;;;;;;7.63;4.00;;;7.60;97.30;;;;;;2090791;28;20029;-90
2021/12/28 02:30:30;;;;;;;10.57;3.95;;;7.60;97.30;;;;;;2085777;28;20052;-90
2021/12/28 02:31:31;;;;;;;6.63;3.88;;;7.60;97.30;;;;;;2079735;28;20524;-89
2021/12/28 02:32:32;;;;;;;11.55;4.57;;;7.70;97.30;;;;;;2093071;28;20103;-90
2021/12/28 02:33:34;;;;;;;10.15;4.45;;;7.60;97.30;;;;;;2105617;28;20047;-89
2021/12/28 02:34:35;;;;;;;8.32;4.32;;;7.70;97.30;;;;;;2103338;28;20056;-89
2021/12/28 02:35:37;;;;;;;7.63;3.92;;;7.60;97.30;;;;;;2082474;28;20049;-90
2021/12/28 02:36:38;;;;;;;8.57;4.15;;;7.60;97.30;;;;;;2092860;28;20041;-89
2021/12/28 02:37:38;;;;;;;7.85;3.63;;;7.60;97.30;;;;;;2097874;28;20111;-89
2021/12/28 02:38:39;;;;;;;8.48;4.32;;;7.60;97.30;;;;;;2098778;28;20159;-89
2021/12/28 02:39:40;;;;;;;8.70;4.68;;;7.60;97.20;;;;;;2089047;28;20056;-89
2021/12/28 02:40:43;;;;;;;9.40;4.70;;;7.70;97.30;;;;;;2081244;28;20034;-89
2021/12/28 02:41:44;;;;;;;8.32;4.32;;;7.60;97.30;;;;;;2090654;28;20407;-89
2021/12/28 02:42:46;;;;;;;10.65;4.35;;;7.60;97.20;;;;;;2106308;28;20047;-89
2021/12/28 02:43:48;;;;;;;8.80;5.05;;;7.60;97.20;;;;;;2090903;28;20132;-89
2021/12/28 02:45:02;;;;;;;11.90;4.72;;;7.60;97.20;;;;;;2091687;28;20024;-89
2021/12/28 02:46:05;;;;;;;9.63;5.25;;;7.60;97.20;;;;;;2096693;28;20072;-89
2021/12/28 02:47:06;;;;;;;11.25;4.90;;;7.60;97.20;;;;;;2094338;28;20033;-89
2021/12/28 02:48:07;;;;;;;8.07;4.50;;;7.60;97.20;;;;;;2084244;28;20576;-89
2021/12/28 02:49:08;;;;;;;7.60;4.28;;;7.60;97.20;;;;;;2075511;28;20033;-89
2021/12/28 02:50:24;;;;;;;10.63;5.18;;;7.60;97.20;;;;;;2077017;28;20091;-89
2021/12/28 02:51:25;;;;;;;9.27;4.60;;;7.60;97.20;;;;;;2096945;28;20542;-89
2021/12/28 02:52:25;;;;;;;10.18;5.15;;;7.60;97.20;;;;;;2094684;28;20029;-89
2021/12/28 02:53:26;;;;;;;11.27;5.05;;;7.50;97.20;;;;;;2089741;28;20037;-88
2021/12/28 02:54:26;;;;;;;10.65;5.47;;;7.50;97.40;;;;;;2098842;28;20021;-89
2021/12/28 02:55:30;;;;;;;9.32;5.13;;;7.50;97.30;;;;;;2096851;28;20097;-90
2021/12/28 02:56:30;;;;;;;8.63;5.22;;;7.50;97.20;;;;;;2101833;28;20576;-90
2021/12/28 02:57:31;;;;;;;12.50;5.90;;;7.50;97.20;;;;;;2089240;28;20155;-89
2021/12/28 02:58:33;;;;;;;10.15;5.43;;;7.50;97.20;;;;;;2095458;28;20037;-89
2021/12/28 02:59:43;;;;;;;10.95;5.80;;;7.50;97.20;;;;;;2105565;28;20606;-90
2021/12/28 03:00:56;;;;;;;11.07;5.55;;;7.50;97.30;;;;;;2097375;28;20040;-89
2021/12/28 03:01:56;;;;;;;9.52;5.95;;;7.40;97.20;;;;;;2083534;28;20061;-89
2021/12/28 03:02:57;;;;;;;9.20;5.40;;;7.40;97.20;;;;;;2079522;28;20100;-89
2021/12/28 03:04:04;;;;;;;10.70;5.38;;;7.40;97.20;;;;;;2090103;28;20450;-90
2021/12/28 03:05:05;;;;;;;11.60;5.60;;;7.40;97.20;;;;;;2090750;28;20068;-89
2021/12/28 03:06:08;;;;;;;12.48;6.30;;;7.40;97.20;;;;;;2096690;28;20513;-88
2021/12/28 03:07:09;;;;;;;10.30;5.30;;;7.40;97.30;;;;;;2097702;28;20060;-89
2021/12/28 03:08:11;;;;;;;11.45;6.32;;;7.40;97.30;;;;;;2097703;28;20028;-88
2021/12/28 03:09:11;;;;;;;11.95;6.18;;;7.40;97.30;;;;;;2097752;28;20049;-88
2021/12/28 03:10:12;;;;;;;12.82;6.22;;;7.30;97.30;;;;;;2081708;28;20041;-88
2021/12/28 03:11:13;;;;;;;12.70;6.07;;;7.30;97.30;;;;;;2081803;28;20492;-89
2021/12/28 03:12:14;;;;;;;12.02;6.53;;;7.30;97.30;;;;;;2089613;28;20033;-88
2021/12/28 03:13:19;;;;;;;12.23;5.93;;;7.30;97.30;;;;;;2097149;28;20090;-88
2021/12/28 03:14:19;;;;;;;12.65;6.38;;;7.30;97.30;;;;;;2096518;28;20078;-89
2021/12/28 03:15:21;;;;;;;11.77;5.95;;;7.30;97.30;;;;;;2100168;28;20063;-85
2021/12/28 03:16:24;;;;;;;11.18;6.63;;;7.30;97.30;;;;;;2100259;28;20129;-88
2021/12/28 03:17:24;;;;;;;9.55;5.90;;;7.30;97.30;;;;;;2090337;28;20059;-85
2021/12/28 03:18:25;;;;;;;11.20;6.47;;;7.30;97.30;;;;;;2077923;28;20046;-85
2021/12/28 03:19:25;;;;;;;11.45;6.20;;;7.30;97.30;;;;;;2073420;28;20062;-85
2021/12/28 03:20:26;;;;;;;11.13;6.40;;;7.30;97.30;;;;;;2077039;28;20041;-84
2021/12/28 03:21:27;;;;;;;10.27;6.03;;;7.20;97.30;;;;;;2085147;28;20072;-85
2021/12/28 03:22:28;;;;;;;13.20;6.35;;;7.30;97.30;;;;;;2091073;28;20057;-88
2021/12/28 03:23:28;;;;;;;11.50;6.53;;;7.30;97.30;;;;;;2083838;28;20918;-88
2021/12/28 03:24:29;;;;;;;11.63;6.18;;;7.30;97.60;;;;;;2065672;28;20503;-89
2021/12/28 03:25:31;;;;;;;12.27;6.28;;;7.30;97.40;;;;;;2082033;28;20037;-89
2021/12/28 03:26:31;;;;;;;10.60;5.72;;;7.30;97.40;;;;;;2096749;28;20049;-89
2021/12/28 03:27:32;;;;;;;10.40;6.28;;;7.30;97.30;;;;;;2080572;28;20089;-89
2021/12/28 03:28:36;;;;;;;10.43;5.88;;;7.30;97.30;;;;;;2073786;28;20035;-88
2021/12/28 03:29:37;;;;;;;13.00;6.40;;;7.30;97.30;;;;;;2089464;28;20506;-89
2021/12/28 03:30:37;;;;;;;8.77;5.75;;;7.30;97.30;;;;;;2098284;28;20048;-89
2021/12/28 03:31:38;;;;;;;11.75;6.65;;;7.30;97.30;;;;;;2088575;28;20041;-89
2021/12/28 03:32:39;;;;;;;9.73;6.35;;;7.30;97.30;;;;;;2090760;28;20404;-88
2021/12/28 03:33:41;;;;;;;10.57;6.20;;;7.30;97.30;;;;;;2099033;28;20391;-88
2021/12/28 03:34:42;;;;;;;12.38;5.68;;;7.30;97.30;;;;;;2097682;28;20039;-89
2021/12/28 03:35:43;;;;;;;11.77;6.22;;;7.30;97.30;;;;;;2098162;28;20487;-89
2021/12/28 03:36:43;;;;;;;9.88;5.50;;;7.30;97.30;;;;;;2089786;28;20052;-89
2021/12/28 03:37:44;;;;;;;9.75;5.38;;;7.30;97.30;;;;;;2097588;28;20041;-89
2021/12/28 03:38:46;;;;;;;10.25;5.63;;;7.30;97.30;;;;;;2098464;28;20441;-88
2021/12/28 03:39:47;;;;;;;9.68;5.35;;;7.20;97.30;;;;;;2098026;28;20119;-89
2021/12/28 03:40:48;;;;;;;8.88;5.57;;;7.30;97.30;;;;;;2089198;28;20037;-89
2021/12/28 03:41:49;;;;;;;9.27;5.10;;;7.20;97.30;;;;;;2090110;28;20044;-89
2021/12/28 03:42:49;;;;;;;9.70;5.43;;;7.20;97.30;;;;;;2098068;28;20037;-88
2021/12/28 03:43:53;;;;;;;8.75;5.18;;;7.20;97.30;;;;;;2089352;28;20056;-89
2021/12/28 03:44:54;;;;;;;11.27;5.60;;;7.20;97.30;;;;;;2088794;28;20048;-88
2021/12/28 03:45:54;;;;;;;10.15;5.22;;;7.20;97.30;;;;;;2090445;28;20072;-88
2021/12/28 03:46:55;;;;;;;10.15;5.40;;;7.20;97.30;;;;;;2092415;28;20040;-89
2021/12/28 03:47:55;;;;;;;8.55;5.25;;;7.10;97.30;;;;;;2094954;28;20406;-89
2021/12/28 03:48:57;;;;;;;9.30;5.47;;;7.10;97.40;;;;;;2098233;28;20037;-89
2021/12/28 03:49:57;;;;;;;9.85;5.50;;;7.10;97.40;;;;;;2080696;28;20396;-89
2021/12/28 03:50:58;;;;;;;10.48;5.00;;;7.10;97.40;;;;;;2071435;28;20041;-89
2021/12/28 03:52:00;;;;;;;8.40;4.78;;;7.10;97.40;;;;;;2073372;28;20048;-89
2021/12/28 03:53:02;;;;;;;8.27;4.80;;;7.10;97.40;;;;;;2095896;28;20087;-89
2021/12/28 03:54:03;;;;;;;8.55;4.85;;;7.10;97.40;;;;;;2084816;28;20443;-89
2021/12/28 03:55:04;;;;;;;9.55;5.13;;;7.10;97.40;;;;;;2089900;28;20052;-89
2021/12/28 03:56:07;;;;;;;9.77;5.45;;;7.10;97.40;;;;;;2089589;28;20033;-90
2021/12/28 03:57:09;;;;;;;9.45;4.97;;;7.10;97.40;;;;;;2086891;28;20057;-89
2021/12/28 03:58:10;;;;;;;12.18;5.60;;;7.10;97.40;;;;;;2073896;28;20030;-89
2021/12/28 03:59:11;;;;;;;12.05;5.70;;;7.10;97.40;;;;;;2088487;28;20044;-89
2021/12/28 04:00:13;;;;;;;10.60;5.20;;;7.10;97.40;;;;;;2105768;28;20510;-89
2021/12/28 04:01:19;;;;;;;9.35;5.63;;;7.10;97.40;;;;;;2103688;28;20032;-89
2021/12/28 04:02:19;;;;;;;11.23;5.40;;;7.10;97.40;;;;;;2098094;28;20063;-89
2021/12/28 04:03:20;;;;;;;11.68;6.30;;;7.10;97.40;;;;;;2106574;28;20028;-89
2021/12/28 04:04:21;;;;;;;10.82;6.15;;;7.10;97.40;;;;;;2098586;28;20024;-89
2021/12/28 04:05:22;;;;;;;10.65;6.40;;;7.10;97.30;;;;;;2098919;28;20040;-88
2021/12/28 04:06:23;;;;;;;9.25;5.68;;;7.10;97.30;;;;;;2095743;28;20068;-89
2021/12/28 04:07:24;;;;;;;11.48;5.32;;;7.10;97.40;;;;;;2097751;28;20436;-89
2021/12/28 04:08:27;;;;;;;10.93;5.15;;;7.10;97.40;;;;;;2098215;28;20040;-89
2021/12/28 04:12:21;;;;;;;8.27;5.35;;;7.20;97.30;;;;;;2054668;28;20519;-90
2021/12/28 04:13:23;;;;;;;9.90;5.57;;;7.10;97.30;;;;;;2056979;28;20449;-89
2021/12/28 04:14:24;;;;;;;9.40;5.50;;;7.20;97.30;;;;;;2057066;28;20035;-89
2021/12/28 04:15:25;;;;;;;8.85;5.35;;;7.10;97.30;;;;;;2048449;28;20508;-89
2021/12/28 04:16:26;;;;;;;9.73;5.82;;;7.10;97.40;;;;;;2051982;28;20046;-89
2021/12/28 04:17:28;;;;;;;10.00;5.32;;;7.20;97.30;;;;;;2074391;28;20080;-90
2021/12/28 04:18:29;;;;;;;10.82;6.43;;;7.20;97.30;;;;;;2089834;28;20055;-90
2021/12/28 04:19:30;;;;;;;8.43;5.28;;;7.20;97.30;;;;;;2090887;28;20033;-89
2021/12/28 04:20:31;;;;;;;11.48;5.97;;;7.20;97.30;;;;;;2073845;28;20034;-89
2021/12/28 04:21:34;;;;;;;11.35;6.00;;;7.20;97.20;;;;;;2083309;28;20051;-89
2021/12/28 04:22:35;;;;;;;12.50;7.43;;;7.20;97.30;;;;;;2095990;28;20483;-89
2021/12/28 04:23:37;;;;;;;11.65;6.20;;;7.10;97.20;;;;;;2097076;28;20037;-89
2021/12/28 04:24:38;;;;;;;11.55;6.07;;;7.20;97.20;;;;;;2089891;28;20111;-89
2021/12/28 04:25:39;;;;;;;10.07;6.10;;;7.10;97.20;;;;;;2085211;28;20585;-89
2021/12/28 04:26:39;;;;;;;8.02;5.43;;;7.20;97.30;;;;;;2083382;28;20052;-88
2021/12/28 04:27:40;;;;;;;10.98;5.88;;;7.10;97.20;;;;;;2076340;28;20034;-89
2021/12/28 04:28:41;;;;;;;10.95;6.18;;;7.20;97.30;;;;;;2081045;28;20132;-89
2021/12/28 04:29:42;;;;;;;10.93;6.43;;;7.10;97.20;;;;;;2080948;28;20052;-90
2021/12/28 04:30:42;;;;;;;9.75;5.70;;;7.20;97.20;;;;;;2085087;28;20036;-89
2021/12/28 04:31:43;;;;;;;11.82;6.50;;;7.20;97.20;;;;;;2096864;28;20052;-89
2021/12/28 04:32:44;;;;;;;9.48;5.90;;;7.20;97.20;;;;;;2096675;28;20037;-89
2021/12/28 04:33:45;;;;;;;10.45;5.93;;;7.20;97.20;;;;;;2089324;28;20120;-89
2021/12/28 04:34:46;;;;;;;12.02;6.65;;;7.20;97.20;;;;;;2080444;28;20033;-89
2021/12/28 04:35:47;;;;;;;10.80;6.20;;;7.20;97.20;;;;;;2089622;28;20090;-89
2021/12/28 04:36:49;;;;;;;12.88;6.90;;;7.10;97.20;;;;;;2098557;28;20033;-90
2021/12/28 04:37:50;;;;;;;12.27;6.57;;;7.10;97.20;;;;;;2088496;28;20037;-89
2021/12/28 04:38:50;;;;;;;11.23;5.95;;;7.10;97.20;;;;;;2079043;28;20539;-90
2021/12/28 04:39:51;;;;;;;12.48;6.50;;;7.10;97.20;;;;;;2072230;28;20504;-90
2021/12/28 04:40:51;;;;;;;11.90;6.70;;;7.20;97.20;;;;;;2081660;28;20029;-90
2021/12/28 04:41:52;;;;;;;11.15;5.97;;;7.20;97.20;;;;;;2097440;28;20040;-89
2021/12/28 04:42:53;;;;;;;12.77;6.25;;;7.10;97.20;;;;;;2088817;28;20041;-90
2021/12/28 04:43:54;;;;;;;10.77;6.30;;;7.20;97.20;;;;;;2073349;28;20033;-88
2021/12/28 04:44:55;;;;;;;16.63;7.00;;;7.20;97.20;;;;;;2072669;28;20064;-89
2021/12/28 04:45:56;;;;;;;12.90;7.18;;;7.10;97.20;;;;;;2080393;28;20188;-89
2021/12/28 04:46:57;;;;;;;11.95;6.65;;;7.20;97.20;;;;;;2087499;28;20047;-89
2021/12/28 04:47:57;;;;;;;13.80;6.85;;;7.20;97.20;;;;;;2097155;28;20058;-89
2021/12/28 04:48:58;;;;;;;12.07;6.93;;;7.20;97.20;;;;;;2096336;28;20028;-89
2021/12/28 04:49:59;;;;;;;9.38;6.47;;;7.20;97.20;;;;;;2096956;28;20032;-89
2021/12/28 04:51:00;;;;;;;9.18;6.78;;;7.20;97.20;;;;;;2105131;28;20113;-88
2021/12/28 04:52:01;;;;;;;10.57;6.32;;;7.10;97.20;;;;;;2089661;28;20037;-89
2021/12/28 04:53:08;;;;;;;11.43;6.22;;;7.20;97.20;;;;;;2089502;28;20040;-89
2021/12/28 04:54:12;;;;;;;11.43;6.18;;;7.20;97.20;;;;;;2089363;28;20060;-89
2021/12/28 04:55:17;;;;;;;11.50;5.88;;;7.20;97.40;;;;;;2087442;28;20466;-89
2021/12/28 04:56:18;;;;;;;10.68;6.03;;;7.20;97.20;;;;;;2089981;28;20475;-89
2021/12/28 04:57:18;;;;;;;10.02;5.72;;;7.20;97.10;;;;;;2095642;28;20048;-90
2021/12/28 04:58:20;;;;;;;10.95;5.75;;;7.20;97.10;;;;;;2095020;28;20047;-89
2021/12/28 04:59:21;;;;;;;8.35;5.45;;;7.20;97.10;;;;;;2096714;28;20048;-90
2021/12/28 05:00:22;;;;;;;8.90;5.45;;;7.20;97.10;;;;;;2097868;28;20539;-90
2021/12/28 05:01:23;;;;;;;8.68;5.50;;;7.20;97.10;;;;;;2096843;28;20037;-90
2021/12/28 05:02:24;;;;;;;9.13;5.28;;;7.20;97.10;;;;;;2089212;28;20045;-90
2021/12/28 05:03:24;;;;;;;8.82;5.45;;;7.20;97.10;;;;;;2080364;28;20033;-89
2021/12/28 05:04:25;;;;;;;8.05;4.90;;;7.20;97.10;;;;;;2074426;28;20125;-89
2021/12/28 05:05:27;;;;;;;9.25;4.93;;;7.20;97.10;;;;;;2079560;28;20029;-89
2021/12/28 05:06:27;;;;;;;8.23;4.93;;;7.30;97.10;;;;;;2077894;28;20164;-89
2021/12/28 05:07:28;;;;;;;9.82;4.95;;;7.30;97.10;;;;;;2081558;28;20500;-88
2021/12/28 05:08:29;;;;;;;9.20;4.78;;;7.20;97.10;;;;;;2090240;28;20514;-85
2021/12/28 05:09:29;;;;;;;7.13;4.55;;;7.30;97.10;;;;;;2088810;28;20069;-86
2021/12/28 05:10:31;;;;;;;8.45;4.85;;;7.30;97.10;;;;;;2092745;28;20057;-86
2021/12/28 05:11:33;;;;;;;11.45;5.40;;;7.30;97.10;;;;;;2099648;28;20426;-86
2021/12/28 05:12:34;;;;;;;9.00;5.20;;;7.30;97.10;;;;;;2092076;28;20117;-85
2021/12/28 05:13:35;;;;;;;9.70;4.82;;;7.30;97.10;;;;;;2086085;28;20412;-85
2021/12/28 05:14:39;;;;;;;9.02;5.38;;;7.30;97.10;;;;;;2100210;28;20047;-84
2021/12/28 05:15:43;;;;;;;10.55;5.20;;;7.30;97.10;;;;;;2091461;28;20090;-87
2021/12/28 05:16:44;;;;;;;10.07;5.25;;;7.30;97.10;;;;;;2095064;28;20068;-88
2021/12/28 05:17:45;;;;;;;7.63;4.43;;;7.30;97.10;;;;;;2096731;28;20067;-88
2021/12/28 05:18:45;;;;;;;8.48;4.78;;;7.30;97.10;;;;;;2073226;28;20132;-88
2021/12/28 05:19:46;;;;;;;8.00;4.65;;;7.30;97.10;;;;;;2072381;28;20046;-89
2021/12/28 05:20:47;;;;;;;10.60;4.57;;;7.30;97.10;;;;;;2087212;28;20099;-89
2021/12/28 05:21:47;;;;;;;11.38;5.00;;;7.30;97.10;;;;;;2088571;28;20045;-89
2021/12/28 05:22:48;;;;;;;12.00;5.05;;;7.30;97.10;;;;;;2098476;28;20036;-89
2021/12/28 05:23:49;;;;;;;10.40;4.72;;;7.30;97.10;;;;;;2087924;28;20028;-89
2021/12/28 05:24:50;;;;;;;9.32;5.10;;;7.30;97.10;;;;;;2089052;28;20040;-88
2021/12/28 05:25:50;;;;;;;9.60;4.80;;;7.30;97.10;;;;;;2098419;28;20445;-88